Bear Lake, Minnesota
Current Conditions -  °F | °C
As of 6:54 PM on Friday 28 Nov 2014 (Local Time) from KCQM Reporting Station
NA  
Wind Chill:   Ceiling: NA
Heat Index: 18°   Visibility: 10mi
Dew Point: 14°   Wind: 6mph
Humidity: 86%   Direction: 130°SE
Pressure: 29.79"   Gusts: NA
Location:  47.8142°N, 92.9861°W
Report Text: KCQM 290054Z AUTO 13005KT 10SM M08/M10 A2979 RMK AO2
Loading
Personal Weather Stations






























Interactive Weather Map New forecast layout! Learn more

10-Day Weather Forecast

Advertisements
Track Severe Weather on mobile